sensor_id;sensor_type;location;lat;lon;timestamp;P1;durP1;ratioP1;P2;durP2;ratioP2
8574;SDS011;4325;42.520;27.448;2022-10-16T00:02:23;12.97;;;10.17;;
8574;SDS011;4325;42.520;27.448;2022-10-16T00:04:50;13.97;;;10.23;;
8574;SDS011;4325;42.520;27.448;2022-10-16T00:07:16;15.73;;;10.53;;
8574;SDS011;4325;42.520;27.448;2022-10-16T00:09:43;12.70;;;10.37;;
8574;SDS011;4325;42.520;27.448;2022-10-16T00:12:11;13.03;;;9.53;;
8574;SDS011;4325;42.520;27.448;2022-10-16T00:14:38;13.20;;;9.97;;
8574;SDS011;4325;42.520;27.448;2022-10-16T00:17:07;13.67;;;9.93;;
8574;SDS011;4325;42.520;27.448;2022-10-16T00:19:34;11.33;;;9.43;;
8574;SDS011;4325;42.520;27.448;2022-10-16T00:22:01;11.97;;;9.73;;
8574;SDS011;4325;42.520;27.448;2022-10-16T00:24:28;18.53;;;10.30;;
8574;SDS011;4325;42.520;27.448;2022-10-16T00:26:55;10.77;;;9.67;;
8574;SDS011;4325;42.520;27.448;2022-10-16T00:29:23;14.27;;;9.63;;
8574;SDS011;4325;42.520;27.448;2022-10-16T00:31:50;14.40;;;9.60;;
8574;SDS011;4325;42.520;27.448;2022-10-16T00:34:17;11.57;;;9.40;;
8574;SDS011;4325;42.520;27.448;2022-10-16T00:36:44;12.53;;;9.67;;
8574;SDS011;4325;42.520;27.448;2022-10-16T00:39:10;11.37;;;8.83;;
8574;SDS011;4325;42.520;27.448;2022-10-16T00:41:37;16.50;;;9.10;;
8574;SDS011;4325;42.520;27.448;2022-10-16T00:47:07;10.50;;;8.83;;
8574;SDS011;4325;42.520;27.448;2022-10-16T00:49:35;12.53;;;8.37;;
8574;SDS011;4325;42.520;27.448;2022-10-16T00:52:02;10.30;;;9.07;;
8574;SDS011;4325;42.520;27.448;2022-10-16T00:54:30;10.47;;;8.83;;
8574;SDS011;4325;42.520;27.448;2022-10-16T00:56:59;11.07;;;8.67;;
8574;SDS011;4325;42.520;27.448;2022-10-16T00:59:30;15.33;;;9.10;;
8574;SDS011;4325;42.520;27.448;2022-10-16T01:01:59;10.57;;;7.90;;
8574;SDS011;4325;42.520;27.448;2022-10-16T01:04:28;17.73;;;8.90;;
8574;SDS011;4325;42.520;27.448;2022-10-16T01:07:01;8.97;;;8.00;;
8574;SDS011;4325;42.520;27.448;2022-10-16T01:09:36;10.10;;;8.30;;
8574;SDS011;4325;42.520;27.448;2022-10-16T01:12:09;14.47;;;8.23;;
8574;SDS011;4325;42.520;27.448;2022-10-16T01:14:40;9.90;;;8.30;;
8574;SDS011;4325;42.520;27.448;2022-10-16T01:17:12;8.83;;;7.93;;
8574;SDS011;4325;42.520;27.448;2022-10-16T01:19:50;10.57;;;8.17;;
8574;SDS011;4325;42.520;27.448;2022-10-16T01:22:28;11.47;;;8.37;;
8574;SDS011;4325;42.520;27.448;2022-10-16T01:25:01;10.10;;;8.30;;
8574;SDS011;4325;42.520;27.448;2022-10-16T01:27:37;13.80;;;8.13;;
8574;SDS011;4325;42.520;27.448;2022-10-16T01:30:09;13.97;;;8.30;;
8574;SDS011;4325;42.520;27.448;2022-10-16T01:32:40;11.90;;;8.43;;
8574;SDS011;4325;42.520;27.448;2022-10-16T01:35:09;10.57;;;7.80;;
8574;SDS011;4325;42.520;27.448;2022-10-16T01:37:41;10.47;;;8.23;;
8574;SDS011;4325;42.520;27.448;2022-10-16T01:40:13;12.80;;;8.27;;
8574;SDS011;4325;42.520;27.448;2022-10-16T01:42:46;12.43;;;7.80;;
8574;SDS011;4325;42.520;27.448;2022-10-16T01:45:19;12.20;;;8.03;;
8574;SDS011;4325;42.520;27.448;2022-10-16T01:47:47;12.50;;;8.33;;
8574;SDS011;4325;42.520;27.448;2022-10-16T01:50:17;13.83;;;8.80;;
8574;SDS011;4325;42.520;27.448;2022-10-16T01:52:47;12.53;;;8.43;;
8574;SDS011;4325;42.520;27.448;2022-10-16T01:55:17;10.63;;;8.73;;
8574;SDS011;4325;42.520;27.448;2022-10-16T01:57:52;16.53;;;9.87;;
8574;SDS011;4325;42.520;27.448;2022-10-16T02:00:21;14.70;;;9.70;;
8574;SDS011;4325;42.520;27.448;2022-10-16T02:02:49;12.63;;;9.53;;
8574;SDS011;4325;42.520;27.448;2022-10-16T02:05:22;15.17;;;10.53;;
8574;SDS011;4325;42.520;27.448;2022-10-16T02:07:53;12.53;;;10.40;;
8574;SDS011;4325;42.520;27.448;2022-10-16T02:10:20;15.47;;;10.67;;
8574;SDS011;4325;42.520;27.448;2022-10-16T02:12:49;14.93;;;11.37;;
8574;SDS011;4325;42.520;27.448;2022-10-16T02:15:22;12.67;;;10.43;;
8574;SDS011;4325;42.520;27.448;2022-10-16T02:17:49;12.20;;;10.27;;
8574;SDS011;4325;42.520;27.448;2022-10-16T02:20:16;12.77;;;10.57;;
8574;SDS011;4325;42.520;27.448;2022-10-16T02:22:47;19.40;;;12.60;;
8574;SDS011;4325;42.520;27.448;2022-10-16T02:25:17;17.73;;;11.60;;
8574;SDS011;4325;42.520;27.448;2022-10-16T02:27:49;13.37;;;10.17;;
8574;SDS011;4325;42.520;27.448;2022-10-16T02:30:24;15.13;;;11.67;;
8574;SDS011;4325;42.520;27.448;2022-10-16T02:32:55;14.73;;;10.87;;
8574;SDS011;4325;42.520;27.448;2022-10-16T02:35:24;17.90;;;11.13;;
8574;SDS011;4325;42.520;27.448;2022-10-16T02:37:53;15.80;;;10.93;;
8574;SDS011;4325;42.520;27.448;2022-10-16T02:40:21;14.10;;;10.90;;
8574;SDS011;4325;42.520;27.448;2022-10-16T02:42:49;16.97;;;10.77;;
8574;SDS011;4325;42.520;27.448;2022-10-16T02:45:20;12.73;;;10.10;;
8574;SDS011;4325;42.520;27.448;2022-10-16T02:47:48;13.47;;;10.37;;
8574;SDS011;4325;42.520;27.448;2022-10-16T02:50:15;16.03;;;10.60;;
8574;SDS011;4325;42.520;27.448;2022-10-16T02:52:43;14.57;;;12.37;;
8574;SDS011;4325;42.520;27.448;2022-10-16T02:55:09;15.63;;;11.37;;
8574;SDS011;4325;42.520;27.448;2022-10-16T02:57:36;13.27;;;10.93;;
8574;SDS011;4325;42.520;27.448;2022-10-16T03:00:05;18.10;;;12.27;;
8574;SDS011;4325;42.520;27.448;2022-10-16T03:02:35;14.87;;;11.17;;
8574;SDS011;4325;42.520;27.448;2022-10-16T03:05:02;13.33;;;10.60;;
8574;SDS011;4325;42.520;27.448;2022-10-16T03:07:29;14.80;;;11.47;;
8574;SDS011;4325;42.520;27.448;2022-10-16T03:09:56;12.30;;;10.23;;
8574;SDS011;4325;42.520;27.448;2022-10-16T03:12:25;13.63;;;10.17;;
8574;SDS011;4325;42.520;27.448;2022-10-16T03:14:52;16.13;;;11.03;;
8574;SDS011;4325;42.520;27.448;2022-10-16T03:17:19;18.07;;;11.67;;
8574;SDS011;4325;42.520;27.448;2022-10-16T03:19:47;15.17;;;10.77;;
8574;SDS011;4325;42.520;27.448;2022-10-16T03:22:14;19.43;;;12.07;;
8574;SDS011;4325;42.520;27.448;2022-10-16T03:24:41;22.10;;;13.10;;
8574;SDS011;4325;42.520;27.448;2022-10-16T03:27:08;18.50;;;12.10;;
8574;SDS011;4325;42.520;27.448;2022-10-16T03:29:35;15.23;;;11.60;;
8574;SDS011;4325;42.520;27.448;2022-10-16T03:32:02;15.73;;;11.90;;
8574;SDS011;4325;42.520;27.448;2022-10-16T03:34:28;19.77;;;12.23;;
8574;SDS011;4325;42.520;27.448;2022-10-16T03:36:57;16.73;;;11.73;;
8574;SDS011;4325;42.520;27.448;2022-10-16T03:39:24;19.13;;;12.80;;
8574;SDS011;4325;42.520;27.448;2022-10-16T03:41:50;15.30;;;10.93;;
8574;SDS011;4325;42.520;27.448;2022-10-16T03:44:17;24.20;;;11.77;;
8574;SDS011;4325;42.520;27.448;2022-10-16T03:46:44;19.13;;;12.03;;
8574;SDS011;4325;42.520;27.448;2022-10-16T03:49:11;17.60;;;10.87;;
8574;SDS011;4325;42.520;27.448;2022-10-16T03:51:38;14.50;;;11.20;;
8574;SDS011;4325;42.520;27.448;2022-10-16T03:54:06;15.87;;;10.43;;
8574;SDS011;4325;42.520;27.448;2022-10-16T03:56:33;14.00;;;9.47;;
8574;SDS011;4325;42.520;27.448;2022-10-16T03:59:00;15.53;;;9.70;;
8574;SDS011;4325;42.520;27.448;2022-10-16T04:01:27;15.83;;;9.57;;
8574;SDS011;4325;42.520;27.448;2022-10-16T04:03:53;17.10;;;10.93;;
8574;SDS011;4325;42.520;27.448;2022-10-16T04:06:20;13.27;;;9.67;;
8574;SDS011;4325;42.520;27.448;2022-10-16T04:08:47;15.13;;;10.10;;
8574;SDS011;4325;42.520;27.448;2022-10-16T04:11:15;17.67;;;10.83;;
8574;SDS011;4325;42.520;27.448;2022-10-16T04:13:42;12.93;;;9.87;;
8574;SDS011;4325;42.520;27.448;2022-10-16T04:16:09;15.63;;;9.30;;
8574;SDS011;4325;42.520;27.448;2022-10-16T04:18:36;12.90;;;8.70;;
8574;SDS011;4325;42.520;27.448;2022-10-16T04:21:03;15.93;;;9.87;;
8574;SDS011;4325;42.520;27.448;2022-10-16T04:23:30;11.43;;;9.43;;
8574;SDS011;4325;42.520;27.448;2022-10-16T04:25:57;17.93;;;8.50;;
8574;SDS011;4325;42.520;27.448;2022-10-16T04:28:26;16.73;;;8.40;;
8574;SDS011;4325;42.520;27.448;2022-10-16T04:30:53;16.97;;;9.23;;
8574;SDS011;4325;42.520;27.448;2022-10-16T04:33:20;12.23;;;9.70;;
8574;SDS011;4325;42.520;27.448;2022-10-16T04:35:47;10.17;;;8.10;;
8574;SDS011;4325;42.520;27.448;2022-10-16T04:38:14;13.13;;;7.77;;
8574;SDS011;4325;42.520;27.448;2022-10-16T04:40:41;12.27;;;8.00;;
8574;SDS011;4325;42.520;27.448;2022-10-16T04:43:08;12.83;;;7.63;;
8574;SDS011;4325;42.520;27.448;2022-10-16T04:45:37;11.93;;;8.70;;
8574;SDS011;4325;42.520;27.448;2022-10-16T04:48:04;11.77;;;7.53;;
8574;SDS011;4325;42.520;27.448;2022-10-16T04:50:31;10.70;;;7.50;;
8574;SDS011;4325;42.520;27.448;2022-10-16T04:52:58;10.80;;;8.10;;
8574;SDS011;4325;42.520;27.448;2022-10-16T04:55:25;10.60;;;7.33;;
8574;SDS011;4325;42.520;27.448;2022-10-16T04:57:52;11.57;;;9.20;;
8574;SDS011;4325;42.520;27.448;2022-10-16T05:00:18;14.80;;;8.27;;
8574;SDS011;4325;42.520;27.448;2022-10-16T05:02:47;10.70;;;7.43;;
8574;SDS011;4325;42.520;27.448;2022-10-16T05:05:15;8.93;;;7.07;;
8574;SDS011;4325;42.520;27.448;2022-10-16T05:07:44;17.83;;;8.03;;
8574;SDS011;4325;42.520;27.448;2022-10-16T05:10:11;18.47;;;9.27;;
8574;SDS011;4325;42.520;27.448;2022-10-16T05:12:38;14.73;;;7.43;;
8574;SDS011;4325;42.520;27.448;2022-10-16T05:15:05;10.50;;;7.30;;
8574;SDS011;4325;42.520;27.448;2022-10-16T05:17:32;17.63;;;10.10;;
8574;SDS011;4325;42.520;27.448;2022-10-16T05:20:01;13.63;;;7.90;;
8574;SDS011;4325;42.520;27.448;2022-10-16T05:22:28;8.40;;;7.03;;
8574;SDS011;4325;42.520;27.448;2022-10-16T05:24:55;8.17;;;7.10;;
8574;SDS011;4325;42.520;27.448;2022-10-16T05:27:22;11.17;;;7.70;;
8574;SDS011;4325;42.520;27.448;2022-10-16T05:29:49;13.93;;;7.73;;
8574;SDS011;4325;42.520;27.448;2022-10-16T05:32:17;13.57;;;10.23;;
8574;SDS011;4325;42.520;27.448;2022-10-16T05:34:44;11.07;;;7.87;;
8574;SDS011;4325;42.520;27.448;2022-10-16T05:37:13;13.87;;;9.60;;
8574;SDS011;4325;42.520;27.448;2022-10-16T05:39:39;11.77;;;8.60;;
8574;SDS011;4325;42.520;27.448;2022-10-16T05:42:07;13.80;;;8.43;;
8574;SDS011;4325;42.520;27.448;2022-10-16T05:44:34;9.53;;;7.70;;
8574;SDS011;4325;42.520;27.448;2022-10-16T05:47:00;9.50;;;7.37;;
8574;SDS011;4325;42.520;27.448;2022-10-16T05:49:27;11.90;;;7.23;;
8574;SDS011;4325;42.520;27.448;2022-10-16T05:51:54;10.47;;;7.23;;
8574;SDS011;4325;42.520;27.448;2022-10-16T05:54:22;8.83;;;7.37;;
8574;SDS011;4325;42.520;27.448;2022-10-16T05:56:49;11.83;;;7.20;;
8574;SDS011;4325;42.520;27.448;2022-10-16T05:59:16;8.10;;;7.10;;
8574;SDS011;4325;42.520;27.448;2022-10-16T06:01:43;16.27;;;7.10;;
8574;SDS011;4325;42.520;27.448;2022-10-16T06:04:10;10.13;;;7.17;;
8574;SDS011;4325;42.520;27.448;2022-10-16T06:06:37;13.30;;;9.00;;
8574;SDS011;4325;42.520;27.448;2022-10-16T06:09:04;13.67;;;7.90;;
8574;SDS011;4325;42.520;27.448;2022-10-16T06:11:32;14.80;;;9.13;;
8574;SDS011;4325;42.520;27.448;2022-10-16T06:14:00;12.03;;;7.77;;
8574;SDS011;4325;42.520;27.448;2022-10-16T06:16:32;9.90;;;7.20;;
8574;SDS011;4325;42.520;27.448;2022-10-16T06:18:59;8.67;;;6.53;;
8574;SDS011;4325;42.520;27.448;2022-10-16T06:21:27;9.63;;;6.83;;
8574;SDS011;4325;42.520;27.448;2022-10-16T06:23:55;8.87;;;6.20;;
8574;SDS011;4325;42.520;27.448;2022-10-16T06:26:24;10.00;;;6.80;;
8574;SDS011;4325;42.520;27.448;2022-10-16T06:28:55;9.63;;;7.13;;
8574;SDS011;4325;42.520;27.448;2022-10-16T06:31:22;9.80;;;6.90;;
8574;SDS011;4325;42.520;27.448;2022-10-16T06:33:53;26.30;;;7.63;;
8574;SDS011;4325;42.520;27.448;2022-10-16T06:36:21;14.13;;;5.47;;
8574;SDS011;4325;42.520;27.448;2022-10-16T06:38:49;13.83;;;6.07;;
8574;SDS011;4325;42.520;27.448;2022-10-16T06:41:16;13.07;;;6.00;;
8574;SDS011;4325;42.520;27.448;2022-10-16T06:43:44;8.83;;;5.77;;
8574;SDS011;4325;42.520;27.448;2022-10-16T06:46:14;7.10;;;4.73;;
8574;SDS011;4325;42.520;27.448;2022-10-16T06:48:42;8.40;;;5.00;;
8574;SDS011;4325;42.520;27.448;2022-10-16T06:51:09;6.40;;;4.90;;
8574;SDS011;4325;42.520;27.448;2022-10-16T06:53:38;4.70;;;4.20;;
8574;SDS011;4325;42.520;27.448;2022-10-16T06:56:08;9.43;;;5.00;;
8574;SDS011;4325;42.520;27.448;2022-10-16T06:58:35;5.90;;;4.30;;
8574;SDS011;4325;42.520;27.448;2022-10-16T07:01:02;6.60;;;3.83;;
8574;SDS011;4325;42.520;27.448;2022-10-16T07:03:31;9.23;;;4.37;;
8574;SDS011;4325;42.520;27.448;2022-10-16T07:06:02;6.30;;;4.13;;
8574;SDS011;4325;42.520;27.448;2022-10-16T07:08:30;5.70;;;3.50;;
8574;SDS011;4325;42.520;27.448;2022-10-16T07:11:00;7.07;;;3.60;;
8574;SDS011;4325;42.520;27.448;2022-10-16T07:13:27;8.20;;;3.73;;
8574;SDS011;4325;42.520;27.448;2022-10-16T07:15:54;5.67;;;3.03;;
8574;SDS011;4325;42.520;27.448;2022-10-16T07:18:21;12.70;;;3.23;;
8574;SDS011;4325;42.520;27.448;2022-10-16T07:20:53;10.00;;;3.00;;
8574;SDS011;4325;42.520;27.448;2022-10-16T07:23:19;5.17;;;3.33;;
8574;SDS011;4325;42.520;27.448;2022-10-16T07:25:52;7.60;;;2.97;;
8574;SDS011;4325;42.520;27.448;2022-10-16T07:28:20;9.53;;;3.50;;
8574;SDS011;4325;42.520;27.448;2022-10-16T07:30:47;5.60;;;3.10;;
8574;SDS011;4325;42.520;27.448;2022-10-16T07:33:14;8.83;;;3.23;;
8574;SDS011;4325;42.520;27.448;2022-10-16T07:35:47;4.70;;;2.87;;
8574;SDS011;4325;42.520;27.448;2022-10-16T07:38:16;9.50;;;2.80;;
8574;SDS011;4325;42.520;27.448;2022-10-16T07:40:43;7.83;;;3.40;;
8574;SDS011;4325;42.520;27.448;2022-10-16T07:43:10;7.30;;;3.27;;
8574;SDS011;4325;42.520;27.448;2022-10-16T07:45:37;7.33;;;2.97;;
8574;SDS011;4325;42.520;27.448;2022-10-16T07:48:12;9.80;;;2.83;;
8574;SDS011;4325;42.520;27.448;2022-10-16T07:50:39;9.90;;;2.70;;
8574;SDS011;4325;42.520;27.448;2022-10-16T07:53:06;10.07;;;3.07;;
8574;SDS011;4325;42.520;27.448;2022-10-16T07:55:34;13.23;;;3.03;;
8574;SDS011;4325;42.520;27.448;2022-10-16T07:58:01;4.90;;;2.70;;
8574;SDS011;4325;42.520;27.448;2022-10-16T08:00:28;6.67;;;2.70;;
8574;SDS011;4325;42.520;27.448;2022-10-16T08:02:56;14.83;;;3.47;;
8574;SDS011;4325;42.520;27.448;2022-10-16T08:05:25;11.87;;;3.03;;
8574;SDS011;4325;42.520;27.448;2022-10-16T08:07:52;5.75;;;2.55;;
8574;SDS011;4325;42.520;27.448;2022-10-16T08:10:19;8.02;;;2.58;;
8574;SDS011;4325;42.520;27.448;2022-10-16T08:12:49;16.02;;;3.22;;
8574;SDS011;4325;42.520;27.448;2022-10-16T08:15:16;14.05;;;3.10;;
8574;SDS011;4325;42.520;27.448;2022-10-16T08:17:43;10.15;;;3.45;;
8574;SDS011;4325;42.520;27.448;2022-10-16T08:20:10;13.70;;;2.90;;
8574;SDS011;4325;42.520;27.448;2022-10-16T08:22:37;7.20;;;2.60;;
8574;SDS011;4325;42.520;27.448;2022-10-16T08:25:05;7.60;;;2.70;;
8574;SDS011;4325;42.520;27.448;2022-10-16T08:27:32;6.00;;;3.30;;
8574;SDS011;4325;42.520;27.448;2022-10-16T08:30:01;8.05;;;3.35;;
8574;SDS011;4325;42.520;27.448;2022-10-16T08:32:27;10.00;;;3.10;;
8574;SDS011;4325;42.520;27.448;2022-10-16T08:34:54;42.20;;;4.60;;
8574;SDS011;4325;42.520;27.448;2022-10-16T08:37:21;5.10;;;3.10;;
8574;SDS011;4325;42.520;27.448;2022-10-16T08:39:48;12.13;;;3.20;;
8574;SDS011;4325;42.520;27.448;2022-10-16T08:42:21;9.20;;;3.15;;
8574;SDS011;4325;42.520;27.448;2022-10-16T08:45:05;7.18;;;2.67;;
8574;SDS011;4325;42.520;27.448;2022-10-16T08:47:49;8.55;;;2.90;;
8574;SDS011;4325;42.520;27.448;2022-10-16T08:50:22;9.50;;;3.10;;
8574;SDS011;4325;42.520;27.448;2022-10-16T08:52:52;7.63;;;2.95;;
8574;SDS011;4325;42.520;27.448;2022-10-16T08:55:29;9.23;;;3.45;;
8574;SDS011;4325;42.520;27.448;2022-10-16T08:58:00;10.25;;;3.58;;
8574;SDS011;4325;42.520;27.448;2022-10-16T09:00:28;5.72;;;3.72;;
8574;SDS011;4325;42.520;27.448;2022-10-16T09:02:59;6.32;;;2.80;;
8574;SDS011;4325;42.520;27.448;2022-10-16T09:08:47;3.28;;;2.53;;
8574;SDS011;4325;42.520;27.448;2022-10-16T09:11:26;7.53;;;3.13;;
8574;SDS011;4325;42.520;27.448;2022-10-16T09:14:06;15.73;;;4.95;;
8574;SDS011;4325;42.520;27.448;2022-10-16T09:16:48;7.63;;;2.83;;
8574;SDS011;4325;42.520;27.448;2022-10-16T09:19:23;6.18;;;3.03;;
8574;SDS011;4325;42.520;27.448;2022-10-16T09:21:56;4.25;;;2.75;;
8574;SDS011;4325;42.520;27.448;2022-10-16T09:24:26;8.23;;;5.15;;
8574;SDS011;4325;42.520;27.448;2022-10-16T09:26:53;13.73;;;4.20;;
8574;SDS011;4325;42.520;27.448;2022-10-16T09:29:20;6.30;;;2.75;;
8574;SDS011;4325;42.520;27.448;2022-10-16T09:31:51;6.82;;;2.75;;
8574;SDS011;4325;42.520;27.448;2022-10-16T09:34:21;7.93;;;2.90;;
8574;SDS011;4325;42.520;27.448;2022-10-16T09:36:55;6.38;;;2.97;;
8574;SDS011;4325;42.520;27.448;2022-10-16T09:39:25;6.60;;;2.80;;
8574;SDS011;4325;42.520;27.448;2022-10-16T09:41:52;5.35;;;3.10;;
8574;SDS011;4325;42.520;27.448;2022-10-16T09:44:21;12.32;;;3.25;;
8574;SDS011;4325;42.520;27.448;2022-10-16T09:47:02;8.88;;;3.15;;
8574;SDS011;4325;42.520;27.448;2022-10-16T09:49:29;6.20;;;3.30;;
8574;SDS011;4325;42.520;27.448;2022-10-16T09:52:02;5.03;;;3.40;;
8574;SDS011;4325;42.520;27.448;2022-10-16T09:54:30;12.93;;;3.38;;
8574;SDS011;4325;42.520;27.448;2022-10-16T09:57:03;5.43;;;2.65;;
8574;SDS011;4325;42.520;27.448;2022-10-16T09:59:31;8.38;;;3.13;;
8574;SDS011;4325;42.520;27.448;2022-10-16T10:02:03;3.55;;;2.53;;
8574;SDS011;4325;42.520;27.448;2022-10-16T10:04:37;6.30;;;3.30;;
8574;SDS011;4325;42.520;27.448;2022-10-16T10:07:07;6.50;;;2.88;;
8574;SDS011;4325;42.520;27.448;2022-10-16T10:09:45;4.38;;;2.70;;
8574;SDS011;4325;42.520;27.448;2022-10-16T10:12:19;7.32;;;3.05;;
8574;SDS011;4325;42.520;27.448;2022-10-16T10:14:48;5.25;;;3.33;;
8574;SDS011;4325;42.520;27.448;2022-10-16T10:17:18;6.05;;;3.05;;
8574;SDS011;4325;42.520;27.448;2022-10-16T10:19:48;5.18;;;3.20;;
8574;SDS011;4325;42.520;27.448;2022-10-16T10:22:28;3.35;;;2.90;;
8574;SDS011;4325;42.520;27.448;2022-10-16T10:24:59;4.18;;;2.97;;
8574;SDS011;4325;42.520;27.448;2022-10-16T10:27:38;7.13;;;3.20;;
8574;SDS011;4325;42.520;27.448;2022-10-16T10:30:14;8.15;;;3.00;;
8574;SDS011;4325;42.520;27.448;2022-10-16T10:32:46;3.70;;;3.10;;
8574;SDS011;4325;42.520;27.448;2022-10-16T10:35:28;5.38;;;3.45;;
8574;SDS011;4325;42.520;27.448;2022-10-16T10:38:06;3.85;;;3.45;;
8574;SDS011;4325;42.520;27.448;2022-10-16T10:40:45;6.25;;;2.90;;
8574;SDS011;4325;42.520;27.448;2022-10-16T10:43:25;7.35;;;2.83;;
8574;SDS011;4325;42.520;27.448;2022-10-16T10:46:00;3.53;;;3.00;;
8574;SDS011;4325;42.520;27.448;2022-10-16T10:48:41;4.53;;;3.30;;
8574;SDS011;4325;42.520;27.448;2022-10-16T10:51:19;11.75;;;3.97;;
8574;SDS011;4325;42.520;27.448;2022-10-16T10:53:56;8.40;;;3.50;;
8574;SDS011;4325;42.520;27.448;2022-10-16T10:56:42;4.20;;;3.05;;
8574;SDS011;4325;42.520;27.448;2022-10-16T10:59:28;5.07;;;3.22;;
8574;SDS011;4325;42.520;27.448;2022-10-16T11:02:09;4.78;;;3.53;;
8574;SDS011;4325;42.520;27.448;2022-10-16T11:04:47;6.45;;;4.53;;
8574;SDS011;4325;42.520;27.448;2022-10-16T11:07:26;4.93;;;4.20;;
8574;SDS011;4325;42.520;27.448;2022-10-16T11:09:56;5.43;;;3.55;;
8574;SDS011;4325;42.520;27.448;2022-10-16T11:12:29;3.85;;;3.40;;
8574;SDS011;4325;42.520;27.448;2022-10-16T11:15:02;16.20;;;3.95;;
8574;SDS011;4325;42.520;27.448;2022-10-16T11:17:34;14.82;;;3.60;;
8574;SDS011;4325;42.520;27.448;2022-10-16T11:20:11;7.40;;;3.47;;
8574;SDS011;4325;42.520;27.448;2022-10-16T11:22:45;3.67;;;2.83;;
8574;SDS011;4325;42.520;27.448;2022-10-16T11:25:18;10.60;;;3.63;;
8574;SDS011;4325;42.520;27.448;2022-10-16T11:27:49;4.88;;;3.17;;
8574;SDS011;4325;42.520;27.448;2022-10-16T11:30:22;4.40;;;2.88;;
8574;SDS011;4325;42.520;27.448;2022-10-16T11:32:54;7.93;;;3.40;;
8574;SDS011;4325;42.520;27.448;2022-10-16T11:35:34;7.45;;;3.28;;
8574;SDS011;4325;42.520;27.448;2022-10-16T11:38:08;7.05;;;3.38;;
8574;SDS011;4325;42.520;27.448;2022-10-16T11:40:39;7.03;;;3.58;;
8574;SDS011;4325;42.520;27.448;2022-10-16T11:43:11;6.78;;;2.90;;
8574;SDS011;4325;42.520;27.448;2022-10-16T11:45:42;4.55;;;2.65;;
8574;SDS011;4325;42.520;27.448;2022-10-16T11:48:15;3.83;;;2.30;;
8574;SDS011;4325;42.520;27.448;2022-10-16T11:50:52;4.32;;;2.78;;
8574;SDS011;4325;42.520;27.448;2022-10-16T11:53:23;5.78;;;2.47;;
8574;SDS011;4325;42.520;27.448;2022-10-16T11:55:57;4.47;;;2.92;;
8574;SDS011;4325;42.520;27.448;2022-10-16T11:58:26;8.25;;;2.65;;
8574;SDS011;4325;42.520;27.448;2022-10-16T12:00:58;5.47;;;2.42;;
8574;SDS011;4325;42.520;27.448;2022-10-16T12:03:39;5.03;;;2.80;;
8574;SDS011;4325;42.520;27.448;2022-10-16T12:06:18;5.15;;;2.55;;
8574;SDS011;4325;42.520;27.448;2022-10-16T12:08:52;7.13;;;2.70;;
8574;SDS011;4325;42.520;27.448;2022-10-16T12:11:30;3.78;;;2.42;;
8574;SDS011;4325;42.520;27.448;2022-10-16T12:14:07;10.27;;;3.00;;
8574;SDS011;4325;42.520;27.448;2022-10-16T12:16:51;5.65;;;2.60;;
8574;SDS011;4325;42.520;27.448;2022-10-16T12:19:21;7.47;;;2.60;;
8574;SDS011;4325;42.520;27.448;2022-10-16T12:21:51;6.70;;;3.30;;
8574;SDS011;4325;42.520;27.448;2022-10-16T12:24:21;6.45;;;3.00;;
8574;SDS011;4325;42.520;27.448;2022-10-16T12:26:56;6.93;;;2.50;;
8574;SDS011;4325;42.520;27.448;2022-10-16T12:29:32;7.53;;;2.50;;
8574;SDS011;4325;42.520;27.448;2022-10-16T12:32:01;6.35;;;2.85;;
8574;SDS011;4325;42.520;27.448;2022-10-16T12:34:34;4.88;;;2.47;;
8574;SDS011;4325;42.520;27.448;2022-10-16T12:37:11;10.10;;;2.83;;
8574;SDS011;4325;42.520;27.448;2022-10-16T12:39:41;7.85;;;2.95;;
8574;SDS011;4325;42.520;27.448;2022-10-16T12:42:21;8.93;;;2.47;;
8574;SDS011;4325;42.520;27.448;2022-10-16T12:44:50;3.85;;;2.38;;
8574;SDS011;4325;42.520;27.448;2022-10-16T12:47:19;5.15;;;2.80;;
8574;SDS011;4325;42.520;27.448;2022-10-16T12:49:48;5.47;;;2.75;;
8574;SDS011;4325;42.520;27.448;2022-10-16T12:52:25;8.35;;;2.80;;
8574;SDS011;4325;42.520;27.448;2022-10-16T12:54:57;6.03;;;2.80;;
8574;SDS011;4325;42.520;27.448;2022-10-16T12:57:34;5.22;;;2.50;;
8574;SDS011;4325;42.520;27.448;2022-10-16T13:00:13;5.20;;;2.47;;
8574;SDS011;4325;42.520;27.448;2022-10-16T13:03:10;6.47;;;2.33;;
8574;SDS011;4325;42.520;27.448;2022-10-16T13:06:09;6.30;;;2.40;;
8574;SDS011;4325;42.520;27.448;2022-10-16T13:08:54;6.17;;;2.77;;
8574;SDS011;4325;42.520;27.448;2022-10-16T13:11:45;8.77;;;3.10;;
8574;SDS011;4325;42.520;27.448;2022-10-16T13:14:28;4.90;;;2.70;;
8574;SDS011;4325;42.520;27.448;2022-10-16T13:17:08;5.63;;;3.03;;
8574;SDS011;4325;42.520;27.448;2022-10-16T13:19:44;7.57;;;2.97;;
8574;SDS011;4325;42.520;27.448;2022-10-16T13:22:20;3.57;;;2.40;;
8574;SDS011;4325;42.520;27.448;2022-10-16T13:25:01;5.30;;;2.70;;
8574;SDS011;4325;42.520;27.448;2022-10-16T13:27:40;4.60;;;2.50;;
8574;SDS011;4325;42.520;27.448;2022-10-16T13:30:15;4.03;;;2.83;;
8574;SDS011;4325;42.520;27.448;2022-10-16T13:32:45;7.73;;;3.13;;
8574;SDS011;4325;42.520;27.448;2022-10-16T13:35:20;5.83;;;2.57;;
8574;SDS011;4325;42.520;27.448;2022-10-16T13:37:49;8.90;;;3.23;;
8574;SDS011;4325;42.520;27.448;2022-10-16T13:40:21;10.70;;;3.00;;
8574;SDS011;4325;42.520;27.448;2022-10-16T13:42:50;6.07;;;2.77;;
8574;SDS011;4325;42.520;27.448;2022-10-16T13:45:19;9.13;;;3.47;;
8574;SDS011;4325;42.520;27.448;2022-10-16T13:47:47;6.43;;;3.13;;
8574;SDS011;4325;42.520;27.448;2022-10-16T13:50:15;6.20;;;3.00;;
8574;SDS011;4325;42.520;27.448;2022-10-16T13:52:44;6.73;;;2.60;;
8574;SDS011;4325;42.520;27.448;2022-10-16T13:55:11;8.03;;;2.77;;
8574;SDS011;4325;42.520;27.448;2022-10-16T13:57:40;4.80;;;2.83;;
8574;SDS011;4325;42.520;27.448;2022-10-16T14:00:17;5.67;;;3.30;;
8574;SDS011;4325;42.520;27.448;2022-10-16T14:02:49;5.40;;;2.87;;
8574;SDS011;4325;42.520;27.448;2022-10-16T14:05:21;6.03;;;3.17;;
8574;SDS011;4325;42.520;27.448;2022-10-16T14:07:49;4.47;;;3.03;;
8574;SDS011;4325;42.520;27.448;2022-10-16T14:10:22;13.00;;;3.33;;
8574;SDS011;4325;42.520;27.448;2022-10-16T14:12:57;8.83;;;3.50;;
8574;SDS011;4325;42.520;27.448;2022-10-16T14:15:25;4.93;;;3.10;;
8574;SDS011;4325;42.520;27.448;2022-10-16T14:17:53;6.87;;;3.83;;
8574;SDS011;4325;42.520;27.448;2022-10-16T14:20:22;7.80;;;3.90;;
8574;SDS011;4325;42.520;27.448;2022-10-16T14:22:58;6.10;;;3.70;;
8574;SDS011;4325;42.520;27.448;2022-10-16T14:25:27;6.93;;;3.47;;
8574;SDS011;4325;42.520;27.448;2022-10-16T14:28:00;7.97;;;3.37;;
8574;SDS011;4325;42.520;27.448;2022-10-16T14:30:29;10.00;;;3.53;;
8574;SDS011;4325;42.520;27.448;2022-10-16T14:32:57;9.20;;;3.90;;
8574;SDS011;4325;42.520;27.448;2022-10-16T14:35:27;8.23;;;3.43;;
8574;SDS011;4325;42.520;27.448;2022-10-16T14:37:55;6.53;;;3.10;;
8574;SDS011;4325;42.520;27.448;2022-10-16T14:40:25;7.53;;;3.10;;
8574;SDS011;4325;42.520;27.448;2022-10-16T14:42:54;5.37;;;3.00;;
8574;SDS011;4325;42.520;27.448;2022-10-16T14:45:23;10.13;;;3.30;;
8574;SDS011;4325;42.520;27.448;2022-10-16T14:47:53;6.13;;;3.10;;
8574;SDS011;4325;42.520;27.448;2022-10-16T14:50:22;8.07;;;3.53;;
8574;SDS011;4325;42.520;27.448;2022-10-16T14:52:49;8.67;;;2.97;;
8574;SDS011;4325;42.520;27.448;2022-10-16T14:55:17;14.67;;;3.67;;
8574;SDS011;4325;42.520;27.448;2022-10-16T14:57:44;10.40;;;4.37;;
8574;SDS011;4325;42.520;27.448;2022-10-16T15:00:14;12.37;;;3.63;;
8574;SDS011;4325;42.520;27.448;2022-10-16T15:02:45;5.60;;;2.83;;
8574;SDS011;4325;42.520;27.448;2022-10-16T15:05:15;9.13;;;4.07;;
8574;SDS011;4325;42.520;27.448;2022-10-16T15:07:44;7.60;;;3.10;;
8574;SDS011;4325;42.520;27.448;2022-10-16T15:10:11;6.10;;;3.93;;
8574;SDS011;4325;42.520;27.448;2022-10-16T15:12:39;6.00;;;3.27;;
8574;SDS011;4325;42.520;27.448;2022-10-16T15:17:59;11.83;;;3.80;;
8574;SDS011;4325;42.520;27.448;2022-10-16T15:20:28;10.03;;;3.77;;
8574;SDS011;4325;42.520;27.448;2022-10-16T15:22:58;9.30;;;3.80;;